Clackamas, Oregon
Current Conditions -  °F | °C
As of 3:53 AM on Thursday 18 Dec 2014 (Local Time) from KTTD Reporting Station
Scattered Clouds Scattered Clouds  
Wind Chill: 34°   Ceiling: Unl
Heat Index: 42°   Visibility: 10mi
Dew Point: 37°   Wind: 16mph
Humidity: 82%   Direction: 100°E
Pressure: 29.98"   Gusts: NA
Location:  45.41°N, 122.55°W
Report Text: KTTD 181153Z AUTO 10014KT 10SM SCT070 06/03 A2998 RMK AO2 SLP150 60000 70003 T00560028 10067 20056 58002
Loading
Personal Weather Stations






























Interactive Weather Map New forecast layout! Learn more

10-Day Weather Forecast

Advertisements
Track Severe Weather on mobile